sensor_id;sensor_type;location;lat;lon;timestamp;P1;durP1;ratioP1;P2;durP2;ratioP2
35306;SDS011;21420;52.196;21.416;2023-04-29T00:01:16;18.80;;;15.00;;
35306;SDS011;21420;52.196;21.416;2023-04-29T00:03:43;20.20;;;14.80;;
35306;SDS011;21420;52.196;21.416;2023-04-29T00:06:10;24.10;;;15.70;;
35306;SDS011;21420;52.196;21.416;2023-04-29T00:08:37;27.10;;;15.90;;
35306;SDS011;21420;52.196;21.416;2023-04-29T00:11:03;22.70;;;14.60;;
35306;SDS011;21420;52.196;21.416;2023-04-29T00:13:30;23.70;;;14.80;;
35306;SDS011;21420;52.196;21.416;2023-04-29T00:15:57;20.90;;;14.60;;
35306;SDS011;21420;52.196;21.416;2023-04-29T00:18:23;24.10;;;15.30;;
35306;SDS011;21420;52.196;21.416;2023-04-29T00:20:50;20.50;;;14.40;;
35306;SDS011;21420;52.196;21.416;2023-04-29T00:23:17;19.50;;;14.00;;
35306;SDS011;21420;52.196;21.416;2023-04-29T00:25:43;19.60;;;14.80;;
35306;SDS011;21420;52.196;21.416;2023-04-29T00:28:10;20.10;;;14.20;;
35306;SDS011;21420;52.196;21.416;2023-04-29T00:30:36;21.50;;;14.40;;
35306;SDS011;21420;52.196;21.416;2023-04-29T00:33:03;19.00;;;14.80;;
35306;SDS011;21420;52.196;21.416;2023-04-29T00:35:30;18.10;;;14.40;;
35306;SDS011;21420;52.196;21.416;2023-04-29T00:37:56;19.20;;;13.90;;
35306;SDS011;21420;52.196;21.416;2023-04-29T00:40:23;19.30;;;14.20;;
35306;SDS011;21420;52.196;21.416;2023-04-29T00:42:50;21.50;;;13.70;;
35306;SDS011;21420;52.196;21.416;2023-04-29T00:45:17;20.00;;;14.60;;
35306;SDS011;21420;52.196;21.416;2023-04-29T00:47:43;19.80;;;14.70;;
35306;SDS011;21420;52.196;21.416;2023-04-29T00:50:10;20.90;;;14.80;;
35306;SDS011;21420;52.196;21.416;2023-04-29T00:52:37;19.30;;;13.60;;
35306;SDS011;21420;52.196;21.416;2023-04-29T00:55:05;19.90;;;12.90;;
35306;SDS011;21420;52.196;21.416;2023-04-29T00:57:34;20.70;;;14.10;;
35306;SDS011;21420;52.196;21.416;2023-04-29T01:00:01;20.70;;;13.00;;
35306;SDS011;21420;52.196;21.416;2023-04-29T01:02:28;19.50;;;13.60;;
35306;SDS011;21420;52.196;21.416;2023-04-29T01:04:55;18.70;;;13.50;;
35306;SDS011;21420;52.196;21.416;2023-04-29T01:13:24;22.50;;;14.20;;
35306;SDS011;21420;52.196;21.416;2023-04-29T01:15:59;20.90;;;13.50;;
35306;SDS011;21420;52.196;21.416;2023-04-29T01:18:32;17.60;;;13.00;;
35306;SDS011;21420;52.196;21.416;2023-04-29T01:21:02;20.10;;;13.20;;
35306;SDS011;21420;52.196;21.416;2023-04-29T01:23:29;19.70;;;13.40;;
35306;SDS011;21420;52.196;21.416;2023-04-29T01:25:56;23.80;;;14.20;;
35306;SDS011;21420;52.196;21.416;2023-04-29T01:28:53;17.80;;;13.90;;
35306;SDS011;21420;52.196;21.416;2023-04-29T01:31:35;20.60;;;13.00;;
35306;SDS011;21420;52.196;21.416;2023-04-29T01:41:43;18.80;;;12.60;;
35306;SDS011;21420;52.196;21.416;2023-04-29T01:44:23;18.70;;;13.60;;
35306;SDS011;21420;52.196;21.416;2023-04-29T01:46:52;19.30;;;12.60;;
35306;SDS011;21420;52.196;21.416;2023-04-29T01:51:53;17.30;;;12.40;;
35306;SDS011;21420;52.196;21.416;2023-04-29T01:54:21;19.80;;;13.90;;
35306;SDS011;21420;52.196;21.416;2023-04-29T01:56:48;27.60;;;16.00;;
35306;SDS011;21420;52.196;21.416;2023-04-29T01:59:25;27.20;;;17.50;;
35306;SDS011;21420;52.196;21.416;2023-04-29T02:02:23;26.30;;;16.90;;
35306;SDS011;21420;52.196;21.416;2023-04-29T02:04:58;26.40;;;14.20;;
35306;SDS011;21420;52.196;21.416;2023-04-29T02:07:25;20.80;;;13.10;;
35306;SDS011;21420;52.196;21.416;2023-04-29T02:09:51;21.20;;;13.80;;
35306;SDS011;21420;52.196;21.416;2023-04-29T02:12:20;15.80;;;12.00;;
35306;SDS011;21420;52.196;21.416;2023-04-29T02:14:50;17.50;;;12.50;;
35306;SDS011;21420;52.196;21.416;2023-04-29T02:17:25;18.00;;;11.90;;
35306;SDS011;21420;52.196;21.416;2023-04-29T02:19:52;15.70;;;11.70;;
35306;SDS011;21420;52.196;21.416;2023-04-29T02:22:26;17.60;;;12.20;;
35306;SDS011;21420;52.196;21.416;2023-04-29T02:24:56;15.90;;;11.00;;
35306;SDS011;21420;52.196;21.416;2023-04-29T02:27:23;15.00;;;11.30;;
35306;SDS011;21420;52.196;21.416;2023-04-29T02:29:50;18.60;;;11.70;;
35306;SDS011;21420;52.196;21.416;2023-04-29T02:32:18;19.50;;;12.00;;
35306;SDS011;21420;52.196;21.416;2023-04-29T02:34:49;19.60;;;13.80;;
35306;SDS011;21420;52.196;21.416;2023-04-29T02:37:24;18.30;;;12.60;;
35306;SDS011;21420;52.196;21.416;2023-04-29T02:39:52;18.20;;;11.50;;
35306;SDS011;21420;52.196;21.416;2023-04-29T02:42:26;19.50;;;11.80;;
35306;SDS011;21420;52.196;21.416;2023-04-29T02:45:03;18.20;;;11.70;;
35306;SDS011;21420;52.196;21.416;2023-04-29T02:47:30;13.80;;;11.10;;
35306;SDS011;21420;52.196;21.416;2023-04-29T02:49:59;15.60;;;10.70;;
35306;SDS011;21420;52.196;21.416;2023-04-29T02:52:25;15.60;;;12.10;;
35306;SDS011;21420;52.196;21.416;2023-04-29T02:54:52;21.70;;;13.10;;
35306;SDS011;21420;52.196;21.416;2023-04-29T02:57:19;19.40;;;12.20;;
35306;SDS011;21420;52.196;21.416;2023-04-29T02:59:48;17.00;;;12.70;;
35306;SDS011;21420;52.196;21.416;2023-04-29T03:02:15;16.60;;;11.30;;
35306;SDS011;21420;52.196;21.416;2023-04-29T03:07:12;19.30;;;12.30;;
35306;SDS011;21420;52.196;21.416;2023-04-29T03:09:38;15.60;;;11.30;;
35306;SDS011;21420;52.196;21.416;2023-04-29T03:12:05;16.80;;;11.70;;
35306;SDS011;21420;52.196;21.416;2023-04-29T03:14:32;14.50;;;11.40;;
35306;SDS011;21420;52.196;21.416;2023-04-29T03:16:59;15.70;;;12.20;;
35306;SDS011;21420;52.196;21.416;2023-04-29T03:19:26;14.70;;;11.70;;
35306;SDS011;21420;52.196;21.416;2023-04-29T03:21:53;14.90;;;11.60;;
35306;SDS011;21420;52.196;21.416;2023-04-29T03:24:20;17.30;;;11.40;;
35306;SDS011;21420;52.196;21.416;2023-04-29T03:26:46;16.30;;;10.40;;
35306;SDS011;21420;52.196;21.416;2023-04-29T03:29:13;16.90;;;11.50;;
35306;SDS011;21420;52.196;21.416;2023-04-29T03:31:39;17.00;;;10.90;;
35306;SDS011;21420;52.196;21.416;2023-04-29T03:34:07;15.80;;;10.40;;
35306;SDS011;21420;52.196;21.416;2023-04-29T03:36:35;16.40;;;11.90;;
35306;SDS011;21420;52.196;21.416;2023-04-29T03:39:07;15.90;;;11.00;;
35306;SDS011;21420;52.196;21.416;2023-04-29T03:41:35;18.10;;;10.40;;
35306;SDS011;21420;52.196;21.416;2023-04-29T03:44:02;15.40;;;11.40;;
35306;SDS011;21420;52.196;21.416;2023-04-29T03:46:28;17.70;;;10.40;;
35306;SDS011;21420;52.196;21.416;2023-04-29T03:48:55;17.00;;;11.00;;
35306;SDS011;21420;52.196;21.416;2023-04-29T03:51:30;15.50;;;11.60;;
35306;SDS011;21420;52.196;21.416;2023-04-29T03:54:08;13.70;;;10.20;;
35306;SDS011;21420;52.196;21.416;2023-04-29T03:56:42;15.50;;;10.60;;
35306;SDS011;21420;52.196;21.416;2023-04-29T03:59:08;17.80;;;10.30;;
35306;SDS011;21420;52.196;21.416;2023-04-29T04:01:44;17.60;;;11.20;;
35306;SDS011;21420;52.196;21.416;2023-04-29T04:04:13;16.30;;;11.20;;
35306;SDS011;21420;52.196;21.416;2023-04-29T04:06:48;16.10;;;11.20;;
35306;SDS011;21420;52.196;21.416;2023-04-29T04:09:18;21.20;;;13.30;;
35306;SDS011;21420;52.196;21.416;2023-04-29T04:11:45;16.60;;;10.90;;
35306;SDS011;21420;52.196;21.416;2023-04-29T04:14:14;14.30;;;10.70;;
35306;SDS011;21420;52.196;21.416;2023-04-29T04:16:41;19.40;;;11.80;;
35306;SDS011;21420;52.196;21.416;2023-04-29T04:19:15;14.90;;;10.90;;
35306;SDS011;21420;52.196;21.416;2023-04-29T04:21:43;17.20;;;11.20;;
35306;SDS011;21420;52.196;21.416;2023-04-29T04:24:10;12.20;;;10.00;;
35306;SDS011;21420;52.196;21.416;2023-04-29T04:26:36;14.60;;;11.00;;
35306;SDS011;21420;52.196;21.416;2023-04-29T04:29:29;13.10;;;9.80;;
35306;SDS011;21420;52.196;21.416;2023-04-29T04:32:06;15.50;;;10.10;;
35306;SDS011;21420;52.196;21.416;2023-04-29T04:34:34;16.00;;;9.90;;
35306;SDS011;21420;52.196;21.416;2023-04-29T04:37:02;13.00;;;10.10;;
35306;SDS011;21420;52.196;21.416;2023-04-29T04:39:33;14.30;;;9.60;;
35306;SDS011;21420;52.196;21.416;2023-04-29T04:42:00;14.20;;;9.80;;
35306;SDS011;21420;52.196;21.416;2023-04-29T04:47:12;14.90;;;9.40;;
35306;SDS011;21420;52.196;21.416;2023-04-29T04:49:49;18.20;;;9.50;;
35306;SDS011;21420;52.196;21.416;2023-04-29T04:52:18;12.00;;;9.60;;
35306;SDS011;21420;52.196;21.416;2023-04-29T04:54:58;13.00;;;9.40;;
35306;SDS011;21420;52.196;21.416;2023-04-29T04:57:25;11.00;;;9.40;;
35306;SDS011;21420;52.196;21.416;2023-04-29T05:00:01;13.80;;;8.80;;
35306;SDS011;21420;52.196;21.416;2023-04-29T05:02:34;10.60;;;9.00;;
35306;SDS011;21420;52.196;21.416;2023-04-29T05:05:01;13.90;;;9.40;;
35306;SDS011;21420;52.196;21.416;2023-04-29T05:07:32;14.00;;;8.60;;
35306;SDS011;21420;52.196;21.416;2023-04-29T05:10:07;16.10;;;9.50;;
35306;SDS011;21420;52.196;21.416;2023-04-29T05:12:42;10.80;;;8.50;;
35306;SDS011;21420;52.196;21.416;2023-04-29T05:15:09;12.40;;;8.40;;
35306;SDS011;21420;52.196;21.416;2023-04-29T05:17:36;10.90;;;8.50;;
35306;SDS011;21420;52.196;21.416;2023-04-29T05:20:03;16.40;;;9.00;;
35306;SDS011;21420;52.196;21.416;2023-04-29T05:22:31;14.80;;;8.40;;
35306;SDS011;21420;52.196;21.416;2023-04-29T05:24:58;11.00;;;8.40;;
35306;SDS011;21420;52.196;21.416;2023-04-29T05:27:28;11.40;;;7.90;;
35306;SDS011;21420;52.196;21.416;2023-04-29T05:29:55;12.90;;;8.60;;
35306;SDS011;21420;52.196;21.416;2023-04-29T05:32:22;11.90;;;8.20;;
35306;SDS011;21420;52.196;21.416;2023-04-29T05:34:50;12.80;;;7.90;;
35306;SDS011;21420;52.196;21.416;2023-04-29T05:37:17;13.90;;;7.80;;
35306;SDS011;21420;52.196;21.416;2023-04-29T05:39:57;13.40;;;8.30;;
35306;SDS011;21420;52.196;21.416;2023-04-29T05:42:24;11.30;;;7.20;;
35306;SDS011;21420;52.196;21.416;2023-04-29T05:44:51;11.40;;;7.00;;
35306;SDS011;21420;52.196;21.416;2023-04-29T05:47:18;14.50;;;8.20;;
35306;SDS011;21420;52.196;21.416;2023-04-29T05:49:45;12.90;;;7.20;;
35306;SDS011;21420;52.196;21.416;2023-04-29T05:52:12;10.40;;;7.40;;
35306;SDS011;21420;52.196;21.416;2023-04-29T05:54:42;9.50;;;7.30;;
35306;SDS011;21420;52.196;21.416;2023-04-29T05:57:09;18.00;;;8.00;;
35306;SDS011;21420;52.196;21.416;2023-04-29T05:59:38;9.70;;;7.50;;
35306;SDS011;21420;52.196;21.416;2023-04-29T06:02:04;14.10;;;7.40;;
35306;SDS011;21420;52.196;21.416;2023-04-29T06:04:33;12.70;;;7.30;;
35306;SDS011;21420;52.196;21.416;2023-04-29T06:07:19;13.10;;;7.60;;
35306;SDS011;21420;52.196;21.416;2023-04-29T06:09:54;15.20;;;8.50;;
35306;SDS011;21420;52.196;21.416;2023-04-29T06:12:23;11.50;;;8.00;;
35306;SDS011;21420;52.196;21.416;2023-04-29T06:14:50;12.00;;;7.30;;
35306;SDS011;21420;52.196;21.416;2023-04-29T06:17:18;12.30;;;7.10;;
35306;SDS011;21420;52.196;21.416;2023-04-29T06:19:45;12.20;;;6.70;;
35306;SDS011;21420;52.196;21.416;2023-04-29T06:22:11;11.00;;;7.10;;
35306;SDS011;21420;52.196;21.416;2023-04-29T06:24:43;10.60;;;7.00;;
35306;SDS011;21420;52.196;21.416;2023-04-29T06:27:13;11.20;;;7.10;;
35306;SDS011;21420;52.196;21.416;2023-04-29T06:29:40;10.80;;;7.00;;
35306;SDS011;21420;52.196;21.416;2023-04-29T06:32:07;10.20;;;6.70;;
35306;SDS011;21420;52.196;21.416;2023-04-29T06:34:34;8.50;;;7.30;;
35306;SDS011;21420;52.196;21.416;2023-04-29T06:37:25;12.10;;;6.80;;
35306;SDS011;21420;52.196;21.416;2023-04-29T06:40:10;14.00;;;7.20;;
35306;SDS011;21420;52.196;21.416;2023-04-29T06:42:57;9.00;;;6.00;;
35306;SDS011;21420;52.196;21.416;2023-04-29T06:45:56;8.00;;;6.40;;
35306;SDS011;21420;52.196;21.416;2023-04-29T06:48:37;10.10;;;5.80;;
35306;SDS011;21420;52.196;21.416;2023-04-29T06:51:04;8.40;;;6.30;;
35306;SDS011;21420;52.196;21.416;2023-04-29T06:53:34;7.70;;;6.30;;
35306;SDS011;21420;52.196;21.416;2023-04-29T06:56:01;7.80;;;6.00;;
35306;SDS011;21420;52.196;21.416;2023-04-29T06:58:27;10.90;;;5.40;;
35306;SDS011;21420;52.196;21.416;2023-04-29T07:00:54;10.20;;;6.10;;
35306;SDS011;21420;52.196;21.416;2023-04-29T07:03:21;9.40;;;5.80;;
35306;SDS011;21420;52.196;21.416;2023-04-29T07:05:49;9.90;;;6.10;;
35306;SDS011;21420;52.196;21.416;2023-04-29T07:08:15;7.70;;;5.40;;
35306;SDS011;21420;52.196;21.416;2023-04-29T07:10:42;8.70;;;5.40;;
35306;SDS011;21420;52.196;21.416;2023-04-29T07:13:09;7.10;;;4.90;;
35306;SDS011;21420;52.196;21.416;2023-04-29T07:15:36;8.30;;;4.90;;
35306;SDS011;21420;52.196;21.416;2023-04-29T07:18:03;8.00;;;5.10;;
35306;SDS011;21420;52.196;21.416;2023-04-29T07:20:31;8.40;;;5.40;;
35306;SDS011;21420;52.196;21.416;2023-04-29T07:22:58;11.10;;;5.30;;
35306;SDS011;21420;52.196;21.416;2023-04-29T07:25:27;6.50;;;4.80;;
35306;SDS011;21420;52.196;21.416;2023-04-29T07:27:54;8.10;;;5.40;;
35306;SDS011;21420;52.196;21.416;2023-04-29T07:30:23;7.50;;;4.80;;
35306;SDS011;21420;52.196;21.416;2023-04-29T07:32:50;9.40;;;4.50;;
35306;SDS011;21420;52.196;21.416;2023-04-29T07:35:17;8.30;;;4.70;;
35306;SDS011;21420;52.196;21.416;2023-04-29T07:37:44;6.00;;;4.40;;
35306;SDS011;21420;52.196;21.416;2023-04-29T07:40:11;6.90;;;4.50;;
35306;SDS011;21420;52.196;21.416;2023-04-29T07:42:38;4.80;;;4.00;;
35306;SDS011;21420;52.196;21.416;2023-04-29T07:45:05;4.70;;;3.50;;
35306;SDS011;21420;52.196;21.416;2023-04-29T07:47:32;7.60;;;3.90;;
35306;SDS011;21420;52.196;21.416;2023-04-29T07:49:59;5.60;;;3.70;;
35306;SDS011;21420;52.196;21.416;2023-04-29T07:52:26;9.30;;;3.70;;
35306;SDS011;21420;52.196;21.416;2023-04-29T07:54:56;5.50;;;3.40;;
35306;SDS011;21420;52.196;21.416;2023-04-29T07:57:23;6.00;;;3.80;;
35306;SDS011;21420;52.196;21.416;2023-04-29T07:59:50;5.00;;;3.70;;
35306;SDS011;21420;52.196;21.416;2023-04-29T08:02:19;4.80;;;3.70;;
35306;SDS011;21420;52.196;21.416;2023-04-29T08:04:47;8.10;;;3.80;;
35306;SDS011;21420;52.196;21.416;2023-04-29T08:07:17;7.10;;;3.40;;
35306;SDS011;21420;52.196;21.416;2023-04-29T08:09:44;4.50;;;3.40;;
35306;SDS011;21420;52.196;21.416;2023-04-29T08:12:11;7.60;;;3.80;;
35306;SDS011;21420;52.196;21.416;2023-04-29T08:14:39;6.40;;;3.80;;
35306;SDS011;21420;52.196;21.416;2023-04-29T08:17:05;5.90;;;3.60;;
35306;SDS011;21420;52.196;21.416;2023-04-29T08:19:33;6.40;;;3.50;;
35306;SDS011;21420;52.196;21.416;2023-04-29T08:22:00;4.80;;;3.30;;
35306;SDS011;21420;52.196;21.416;2023-04-29T08:24:27;5.60;;;3.70;;
35306;SDS011;21420;52.196;21.416;2023-04-29T08:26:55;6.90;;;4.00;;
35306;SDS011;21420;52.196;21.416;2023-04-29T08:29:21;5.50;;;3.50;;
35306;SDS011;21420;52.196;21.416;2023-04-29T08:31:48;4.60;;;4.10;;
35306;SDS011;21420;52.196;21.416;2023-04-29T08:34:15;9.80;;;4.00;;
35306;SDS011;21420;52.196;21.416;2023-04-29T08:36:42;10.00;;;4.20;;
35306;SDS011;21420;52.196;21.416;2023-04-29T08:39:09;7.40;;;3.40;;
35306;SDS011;21420;52.196;21.416;2023-04-29T08:41:36;6.90;;;4.00;;
35306;SDS011;21420;52.196;21.416;2023-04-29T08:44:03;7.40;;;3.80;;
35306;SDS011;21420;52.196;21.416;2023-04-29T08:46:29;8.60;;;4.30;;
35306;SDS011;21420;52.196;21.416;2023-04-29T08:48:57;5.50;;;3.60;;
35306;SDS011;21420;52.196;21.416;2023-04-29T08:51:24;5.60;;;3.60;;
35306;SDS011;21420;52.196;21.416;2023-04-29T08:53:51;6.50;;;3.30;;
35306;SDS011;21420;52.196;21.416;2023-04-29T08:56:18;7.60;;;4.00;;
35306;SDS011;21420;52.196;21.416;2023-04-29T08:58:48;11.90;;;4.30;;
35306;SDS011;21420;52.196;21.416;2023-04-29T09:01:20;5.90;;;3.90;;
35306;SDS011;21420;52.196;21.416;2023-04-29T09:03:57;13.00;;;4.30;;
35306;SDS011;21420;52.196;21.416;2023-04-29T09:06:35;8.30;;;3.80;;
35306;SDS011;21420;52.196;21.416;2023-04-29T09:09:01;9.10;;;4.10;;
35306;SDS011;21420;52.196;21.416;2023-04-29T09:11:32;6.30;;;3.80;;
35306;SDS011;21420;52.196;21.416;2023-04-29T09:14:00;7.90;;;4.40;;
35306;SDS011;21420;52.196;21.416;2023-04-29T09:16:27;6.40;;;3.70;;
35306;SDS011;21420;52.196;21.416;2023-04-29T09:18:55;7.30;;;3.50;;
35306;SDS011;21420;52.196;21.416;2023-04-29T09:21:23;3.90;;;3.50;;
35306;SDS011;21420;52.196;21.416;2023-04-29T09:23:53;8.80;;;4.30;;
35306;SDS011;21420;52.196;21.416;2023-04-29T09:26:21;6.60;;;3.70;;
35306;SDS011;21420;52.196;21.416;2023-04-29T09:29:04;6.00;;;4.10;;
35306;SDS011;21420;52.196;21.416;2023-04-29T09:31:35;6.80;;;3.50;;
35306;SDS011;21420;52.196;21.416;2023-04-29T09:34:03;7.10;;;3.80;;
35306;SDS011;21420;52.196;21.416;2023-04-29T09:36:38;5.80;;;3.40;;
35306;SDS011;21420;52.196;21.416;2023-04-29T09:39:19;7.10;;;3.30;;
35306;SDS011;21420;52.196;21.416;2023-04-29T09:44:21;7.90;;;3.60;;
35306;SDS011;21420;52.196;21.416;2023-04-29T09:49:26;6.90;;;3.40;;
35306;SDS011;21420;52.196;21.416;2023-04-29T09:51:55;7.90;;;3.20;;
35306;SDS011;21420;52.196;21.416;2023-04-29T09:54:24;5.50;;;3.40;;
35306;SDS011;21420;52.196;21.416;2023-04-29T09:56:54;7.20;;;3.70;;
35306;SDS011;21420;52.196;21.416;2023-04-29T09:59:22;5.60;;;3.10;;
35306;SDS011;21420;52.196;21.416;2023-04-29T10:01:50;7.00;;;3.70;;
35306;SDS011;21420;52.196;21.416;2023-04-29T10:04:21;6.40;;;3.40;;
35306;SDS011;21420;52.196;21.416;2023-04-29T10:06:49;6.40;;;3.10;;
35306;SDS011;21420;52.196;21.416;2023-04-29T10:09:19;4.00;;;3.10;;
35306;SDS011;21420;52.196;21.416;2023-04-29T10:11:48;5.20;;;3.60;;
35306;SDS011;21420;52.196;21.416;2023-04-29T10:14:22;6.20;;;3.40;;
35306;SDS011;21420;52.196;21.416;2023-04-29T10:16:53;3.90;;;3.30;;
35306;SDS011;21420;52.196;21.416;2023-04-29T10:21:59;7.20;;;3.90;;
35306;SDS011;21420;52.196;21.416;2023-04-29T10:24:37;7.70;;;3.40;;
35306;SDS011;21420;52.196;21.416;2023-04-29T10:27:08;7.10;;;3.90;;
35306;SDS011;21420;52.196;21.416;2023-04-29T10:29:38;6.00;;;3.60;;
35306;SDS011;21420;52.196;21.416;2023-04-29T10:32:08;7.30;;;3.90;;
35306;SDS011;21420;52.196;21.416;2023-04-29T10:34:38;5.30;;;3.90;;
35306;SDS011;21420;52.196;21.416;2023-04-29T10:37:07;7.70;;;3.50;;
35306;SDS011;21420;52.196;21.416;2023-04-29T10:39:38;7.60;;;3.80;;
35306;SDS011;21420;52.196;21.416;2023-04-29T10:42:33;8.90;;;3.70;;
35306;SDS011;21420;52.196;21.416;2023-04-29T10:50:32;5.40;;;3.40;;
35306;SDS011;21420;52.196;21.416;2023-04-29T10:53:02;7.00;;;3.50;;
35306;SDS011;21420;52.196;21.416;2023-04-29T10:55:30;9.10;;;3.80;;
35306;SDS011;21420;52.196;21.416;2023-04-29T10:58:01;7.10;;;3.90;;
35306;SDS011;21420;52.196;21.416;2023-04-29T11:00:31;3.70;;;3.20;;
35306;SDS011;21420;52.196;21.416;2023-04-29T11:03:00;9.60;;;3.90;;
35306;SDS011;21420;52.196;21.416;2023-04-29T11:05:34;5.80;;;3.40;;
35306;SDS011;21420;52.196;21.416;2023-04-29T11:08:11;4.50;;;3.30;;
35306;SDS011;21420;52.196;21.416;2023-04-29T11:10:42;6.90;;;3.60;;
35306;SDS011;21420;52.196;21.416;2023-04-29T11:16:03;5.80;;;3.50;;
35306;SDS011;21420;52.196;21.416;2023-04-29T11:18:31;6.10;;;3.80;;
35306;SDS011;21420;52.196;21.416;2023-04-29T11:23:37;6.80;;;3.20;;
35306;SDS011;21420;52.196;21.416;2023-04-29T11:26:10;7.50;;;3.90;;
35306;SDS011;21420;52.196;21.416;2023-04-29T11:28:37;5.40;;;3.80;;
35306;SDS011;21420;52.196;21.416;2023-04-29T11:31:08;6.80;;;4.50;;
35306;SDS011;21420;52.196;21.416;2023-04-29T11:33:35;7.10;;;3.80;;
35306;SDS011;21420;52.196;21.416;2023-04-29T11:36:03;11.00;;;4.40;;
35306;SDS011;21420;52.196;21.416;2023-04-29T11:38:30;5.40;;;3.70;;
35306;SDS011;21420;52.196;21.416;2023-04-29T11:40:57;7.40;;;4.10;;
35306;SDS011;21420;52.196;21.416;2023-04-29T11:43:25;5.60;;;3.90;;
35306;SDS011;21420;52.196;21.416;2023-04-29T11:45:52;7.80;;;3.90;;
35306;SDS011;21420;52.196;21.416;2023-04-29T11:48:20;7.10;;;4.00;;
35306;SDS011;21420;52.196;21.416;2023-04-29T11:50:48;6.80;;;4.10;;
35306;SDS011;21420;52.196;21.416;2023-04-29T11:53:20;5.10;;;3.80;;
35306;SDS011;21420;52.196;21.416;2023-04-29T11:55:53;8.20;;;4.00;;
35306;SDS011;21420;52.196;21.416;2023-04-29T11:58:22;7.20;;;4.00;;
35306;SDS011;21420;52.196;21.416;2023-04-29T12:00:50;6.00;;;4.00;;
35306;SDS011;21420;52.196;21.416;2023-04-29T12:03:20;8.10;;;4.10;;
35306;SDS011;21420;52.196;21.416;2023-04-29T12:05:50;5.80;;;3.80;;
35306;SDS011;21420;52.196;21.416;2023-04-29T12:08:21;5.80;;;3.60;;
35306;SDS011;21420;52.196;21.416;2023-04-29T12:10:53;4.90;;;3.80;;
35306;SDS011;21420;52.196;21.416;2023-04-29T12:13:28;4.90;;;3.80;;
35306;SDS011;21420;52.196;21.416;2023-04-29T12:15:58;4.20;;;3.80;;
35306;SDS011;21420;52.196;21.416;2023-04-29T12:18:28;7.90;;;4.10;;
35306;SDS011;21420;52.196;21.416;2023-04-29T12:20:58;4.30;;;3.90;;
35306;SDS011;21420;52.196;21.416;2023-04-29T12:23:28;5.00;;;3.70;;
35306;SDS011;21420;52.196;21.416;2023-04-29T12:25:59;6.20;;;3.80;;
35306;SDS011;21420;52.196;21.416;2023-04-29T12:28:29;6.80;;;3.80;;
35306;SDS011;21420;52.196;21.416;2023-04-29T12:31:00;6.40;;;3.80;;
35306;SDS011;21420;52.196;21.416;2023-04-29T12:33:31;5.40;;;4.30;;
35306;SDS011;21420;52.196;21.416;2023-04-29T12:36:01;4.70;;;3.70;;
35306;SDS011;21420;52.196;21.416;2023-04-29T12:38:30;7.10;;;3.50;;
35306;SDS011;21420;52.196;21.416;2023-04-29T12:41:01;4.50;;;3.60;;
35306;SDS011;21420;52.196;21.416;2023-04-29T12:43:31;5.50;;;4.10;;
35306;SDS011;21420;52.196;21.416;2023-04-29T12:46:04;7.10;;;4.00;;
35306;SDS011;21420;52.196;21.416;2023-04-29T12:48:36;5.40;;;3.90;;
35306;SDS011;21420;52.196;21.416;2023-04-29T12:51:08;5.70;;;3.90;;
35306;SDS011;21420;52.196;21.416;2023-04-29T12:53:39;6.30;;;4.30;;
35306;SDS011;21420;52.196;21.416;2023-04-29T12:56:10;6.70;;;4.00;;
35306;SDS011;21420;52.196;21.416;2023-04-29T12:58:40;9.50;;;4.10;;
35306;SDS011;21420;52.196;21.416;2023-04-29T13:01:09;9.30;;;4.00;;
35306;SDS011;21420;52.196;21.416;2023-04-29T13:10:44;5.90;;;3.90;;
35306;SDS011;21420;52.196;21.416;2023-04-29T13:13:11;7.10;;;4.10;;
35306;SDS011;21420;52.196;21.416;2023-04-29T13:15:38;7.40;;;3.50;;
35306;SDS011;21420;52.196;21.416;2023-04-29T13:18:05;5.60;;;4.00;;
35306;SDS011;21420;52.196;21.416;2023-04-29T13:20:32;5.60;;;4.20;;
35306;SDS011;21420;52.196;21.416;2023-04-29T13:23:07;5.90;;;4.00;;
35306;SDS011;21420;52.196;21.416;2023-04-29T13:25:35;6.10;;;4.30;;
35306;SDS011;21420;52.196;21.416;2023-04-29T13:28:02;5.70;;;4.00;;
35306;SDS011;21420;52.196;21.416;2023-04-29T13:30:31;6.50;;;4.30;;
35306;SDS011;21420;52.196;21.416;2023-04-29T13:32:58;7.70;;;4.10;;
35306;SDS011;21420;52.196;21.416;2023-04-29T13:35:36;8.00;;;3.80;;
35306;SDS011;21420;52.196;21.416;2023-04-29T13:38:05;6.30;;;4.10;;
35306;SDS011;21420;52.196;21.416;2023-04-29T13:40:33;7.20;;;4.80;;
35306;SDS011;21420;52.196;21.416;2023-04-29T13:43:07;7.20;;;5.10;;
35306;SDS011;21420;52.196;21.416;2023-04-29T13:45:36;11.60;;;5.50;;
35306;SDS011;21420;52.196;21.416;2023-04-29T13:48:09;9.10;;;4.00;;
35306;SDS011;21420;52.196;21.416;2023-04-29T13:50:55;6.30;;;4.60;;
35306;SDS011;21420;52.196;21.416;2023-04-29T13:53:42;7.90;;;5.30;;
35306;SDS011;21420;52.196;21.416;2023-04-29T13:56:12;9.50;;;4.90;;
35306;SDS011;21420;52.196;21.416;2023-04-29T13:58:42;7.50;;;4.40;;
35306;SDS011;21420;52.196;21.416;2023-04-29T14:01:28;6.90;;;4.10;;
35306;SDS011;21420;52.196;21.416;2023-04-29T14:03:58;7.40;;;4.70;;
35306;SDS011;21420;52.196;21.416;2023-04-29T14:06:26;7.70;;;4.40;;
35306;SDS011;21420;52.196;21.416;2023-04-29T14:08:53;11.90;;;5.60;;
35306;SDS011;21420;52.196;21.416;2023-04-29T14:11:20;5.70;;;4.90;;
35306;SDS011;21420;52.196;21.416;2023-04-29T14:13:47;6.80;;;5.10;;
35306;SDS011;21420;52.196;21.416;2023-04-29T14:16:13;6.90;;;4.40;;
35306;SDS011;21420;52.196;21.416;2023-04-29T14:18:40;7.50;;;4.70;;
35306;SDS011;21420;52.196;21.416;2023-04-29T14:21:07;9.90;;;5.50;;
35306;SDS011;21420;52.196;21.416;2023-04-29T14:23:34;7.00;;;4.60;;
35306;SDS011;21420;52.196;21.416;2023-04-29T14:26:01;7.70;;;4.80;;
35306;SDS011;21420;52.196;21.416;2023-04-29T14:28:47;6.60;;;5.20;;
35306;SDS011;21420;52.196;21.416;2023-04-29T14:31:15;7.70;;;5.10;;
35306;SDS011;21420;52.196;21.416;2023-04-29T14:33:43;9.10;;;5.20;;
35306;SDS011;21420;52.196;21.416;2023-04-29T14:36:09;7.60;;;5.60;;
35306;SDS011;21420;52.196;21.416;2023-04-29T14:38:36;8.30;;;5.80;;
35306;SDS011;21420;52.196;21.416;2023-04-29T14:41:03;9.80;;;5.80;;
35306;SDS011;21420;52.196;21.416;2023-04-29T14:43:29;5.90;;;5.20;;
35306;SDS011;21420;52.196;21.416;2023-04-29T14:45:56;10.10;;;5.50;;
35306;SDS011;21420;52.196;21.416;2023-04-29T14:48:23;9.10;;;5.10;;
35306;SDS011;21420;52.196;21.416;2023-04-29T14:50:50;8.40;;;5.50;;
35306;SDS011;21420;52.196;21.416;2023-04-29T14:53:17;11.20;;;6.10;;
35306;SDS011;21420;52.196;21.416;2023-04-29T14:55:44;9.00;;;6.10;;
35306;SDS011;21420;52.196;21.416;2023-04-29T14:58:10;6.70;;;5.30;;
35306;SDS011;21420;52.196;21.416;2023-04-29T15:00:37;11.80;;;6.60;;
35306;SDS011;21420;52.196;21.416;2023-04-29T15:03:03;8.30;;;5.40;;
35306;SDS011;21420;52.196;21.416;2023-04-29T15:05:30;7.60;;;5.00;;
35306;SDS011;21420;52.196;21.416;2023-04-29T15:07:57;10.70;;;4.90;;
35306;SDS011;21420;52.196;21.416;2023-04-29T15:10:25;8.60;;;5.20;;
35306;SDS011;21420;52.196;21.416;2023-04-29T15:12:53;5.90;;;4.60;;
35306;SDS011;21420;52.196;21.416;2023-04-29T15:15:20;11.30;;;5.60;;
35306;SDS011;21420;52.196;21.416;2023-04-29T15:17:48;10.00;;;6.00;;
35306;SDS011;21420;52.196;21.416;2023-04-29T15:20:15;9.20;;;5.40;;
35306;SDS011;21420;52.196;21.416;2023-04-29T15:22:41;7.40;;;5.20;;
35306;SDS011;21420;52.196;21.416;2023-04-29T15:25:08;6.10;;;5.30;;